sensor_id;sensor_type;location;lat;lon;timestamp;pressure;altitude;pressure_sealevel;temperature;humidity
55044;BME280;54902;50.420;18.854;2023-12-04T00:00:10;101960.14;;;-3.77;85.55
55044;BME280;54902;50.420;18.854;2023-12-04T00:00:42;101958.36;;;-3.78;85.55
55044;BME280;54902;50.420;18.854;2023-12-04T00:01:15;101959.25;;;-3.79;85.55
55044;BME280;54902;50.420;18.854;2023-12-04T00:01:46;101958.36;;;-3.78;85.54
55044;BME280;54902;50.420;18.854;2023-12-04T00:02:18;101962.82;;;-3.78;85.55
55044;BME280;54902;50.420;18.854;2023-12-04T00:02:49;101959.27;;;-3.80;85.52
55044;BME280;54902;50.420;18.854;2023-12-04T00:03:20;101954.84;;;-3.80;85.53
55044;BME280;54902;50.420;18.854;2023-12-04T00:03:51;101955.73;;;-3.81;85.50
55044;BME280;54902;50.420;18.854;2023-12-04T00:04:22;101953.95;;;-3.82;85.52
55044;BME280;54902;50.420;18.854;2023-12-04T00:04:53;101958.39;;;-3.81;85.51
55044;BME280;54902;50.420;18.854;2023-12-04T00:05:24;101946.84;;;-3.83;85.50
55044;BME280;54902;50.420;18.854;2023-12-04T00:05:55;101957.49;;;-3.83;85.50
55044;BME280;54902;50.420;18.854;2023-12-04T00:06:26;101941.51;;;-3.84;85.49
55044;BME280;54902;50.420;18.854;2023-12-04T00:06:57;101948.64;;;-3.85;85.47
55044;BME280;54902;50.420;18.854;2023-12-04T00:07:28;101954.87;;;-3.86;85.49
55044;BME280;54902;50.420;18.854;2023-12-04T00:07:59;101953.09;;;-3.87;85.47
55044;BME280;54902;50.420;18.854;2023-12-04T00:08:30;101953.09;;;-3.87;85.47
55044;BME280;54902;50.420;18.854;2023-12-04T00:09:01;101945.98;;;-3.88;85.47
55044;BME280;54902;50.420;18.854;2023-12-04T00:09:32;101953.13;;;-3.90;85.45
55044;BME280;54902;50.420;18.854;2023-12-04T00:10:03;101954.90;;;-3.89;85.43
55044;BME280;54902;50.420;18.854;2023-12-04T00:10:34;101957.58;;;-3.90;85.42
55044;BME280;54902;50.420;18.854;2023-12-04T00:11:06;101951.34;;;-3.91;85.42
55044;BME280;54902;50.420;18.854;2023-12-04T00:11:37;101948.69;;;-3.92;85.41
55044;BME280;54902;50.420;18.854;2023-12-04T00:12:08;101953.16;;;-3.93;85.40
55044;BME280;54902;50.420;18.854;2023-12-04T00:12:39;101955.80;;;-3.94;85.40
55044;BME280;54902;50.420;18.854;2023-12-04T00:13:10;101952.27;;;-3.96;85.40
55044;BME280;54902;50.420;18.854;2023-12-04T00:13:42;101954.07;;;-3.97;85.37
55044;BME280;54902;50.420;18.854;2023-12-04T00:14:12;101954.96;;;-3.98;85.37
55044;BME280;54902;50.420;18.854;2023-12-04T00:14:43;101949.64;;;-3.99;85.37
55044;BME280;54902;50.420;18.854;2023-12-04T00:15:15;101951.40;;;-4.00;85.36
55044;BME280;54902;50.420;18.854;2023-12-04T00:15:47;101956.76;;;-4.01;85.37
55044;BME280;54902;50.420;18.854;2023-12-04T00:16:18;101953.22;;;-4.03;85.36
55044;BME280;54902;50.420;18.854;2023-12-04T00:16:49;101955.89;;;-4.03;85.32
55044;BME280;54902;50.420;18.854;2023-12-04T00:17:20;101960.32;;;-4.04;85.33
55044;BME280;54902;50.420;18.854;2023-12-04T00:17:52;101960.34;;;-4.05;85.30
55044;BME280;54902;50.420;18.854;2023-12-04T00:18:23;101955.01;;;-4.06;85.31
55044;BME280;54902;50.420;18.854;2023-12-04T00:18:54;101960.35;;;-4.06;85.30
55044;BME280;54902;50.420;18.854;2023-12-04T00:19:25;101964.79;;;-4.08;85.30
55044;BME280;54902;50.420;18.854;2023-12-04T00:19:56;101952.38;;;-4.09;85.29
55044;BME280;54902;50.420;18.854;2023-12-04T00:20:27;101960.39;;;-4.11;85.27
55044;BME280;54902;50.420;18.854;2023-12-04T00:20:58;101963.94;;;-4.10;85.26
55044;BME280;54902;50.420;18.854;2023-12-04T00:21:29;101966.62;;;-4.12;85.24
55044;BME280;54902;50.420;18.854;2023-12-04T00:22:00;101960.39;;;-4.14;85.26
55044;BME280;54902;50.420;18.854;2023-12-04T00:22:31;101956.84;;;-4.14;85.25
55044;BME280;54902;50.420;18.854;2023-12-04T00:23:02;101961.29;;;-4.16;85.24
55044;BME280;54902;50.420;18.854;2023-12-04T00:23:33;101957.76;;;-4.18;85.22
55044;BME280;54902;50.420;18.854;2023-12-04T00:24:05;101967.55;;;-4.17;85.22
55044;BME280;54902;50.420;18.854;2023-12-04T00:24:36;101964.86;;;-4.19;85.21
55044;BME280;54902;50.420;18.854;2023-12-04T00:25:07;101958.66;;;-4.21;85.21
55044;BME280;54902;50.420;18.854;2023-12-04T00:25:38;101960.45;;;-4.21;85.20
55044;BME280;54902;50.420;18.854;2023-12-04T00:26:09;101958.67;;;-4.22;85.19
55044;BME280;54902;50.420;18.854;2023-12-04T00:26:40;101964.02;;;-4.24;85.20
55044;BME280;54902;50.420;18.854;2023-12-04T00:27:11;101959.58;;;-4.25;85.19
55044;BME280;54902;50.420;18.854;2023-12-04T00:27:42;101966.70;;;-4.25;85.18
55044;BME280;54902;50.420;18.854;2023-12-04T00:28:13;101962.26;;;-4.26;85.19
55044;BME280;54902;50.420;18.854;2023-12-04T00:28:44;101960.48;;;-4.27;85.20
55044;BME280;54902;50.420;18.854;2023-12-04T00:29:15;101967.59;;;-4.28;85.18
55044;BME280;54902;50.420;18.854;2023-12-04T00:29:46;101960.50;;;-4.30;85.18
55044;BME280;54902;50.420;18.854;2023-12-04T00:30:17;101962.28;;;-4.29;85.21
55044;BME280;54902;50.420;18.854;2023-12-04T00:30:48;101967.62;;;-4.29;85.21
55044;BME280;54902;50.420;18.854;2023-12-04T00:31:24;101961.37;;;-4.30;85.21
55044;BME280;54902;50.420;18.854;2023-12-04T00:31:58;101969.38;;;-4.31;85.22
55044;BME280;54902;50.420;18.854;2023-12-04T00:32:29;101975.60;;;-4.32;85.21
55044;BME280;54902;50.420;18.854;2023-12-04T00:33:00;101964.94;;;-4.32;85.23
55044;BME280;54902;50.420;18.854;2023-12-04T00:33:32;101969.41;;;-4.33;85.22
55044;BME280;54902;50.420;18.854;2023-12-04T00:34:03;101966.75;;;-4.34;85.23
55044;BME280;54902;50.420;18.854;2023-12-04T00:34:34;101965.82;;;-4.33;85.24
55044;BME280;54902;50.420;18.854;2023-12-04T00:35:05;101969.41;;;-4.34;85.24
55044;BME280;54902;50.420;18.854;2023-12-04T00:35:36;101969.41;;;-4.34;85.24
55044;BME280;54902;50.420;18.854;2023-12-04T00:36:08;101964.08;;;-4.34;85.25
55044;BME280;54902;50.420;18.854;2023-12-04T00:36:40;101959.64;;;-4.35;85.25
55044;BME280;54902;50.420;18.854;2023-12-04T00:37:11;101958.75;;;-4.34;85.27
55044;BME280;54902;50.420;18.854;2023-12-04T00:37:42;101962.29;;;-4.34;85.29
55044;BME280;54902;50.420;18.854;2023-12-04T00:38:13;101961.42;;;-4.34;85.28
55044;BME280;54902;50.420;18.854;2023-12-04T00:38:44;101958.75;;;-4.34;85.29
55044;BME280;54902;50.420;18.854;2023-12-04T00:39:15;101960.51;;;-4.35;85.28
55044;BME280;54902;50.420;18.854;2023-12-04T00:39:46;101968.49;;;-4.33;85.28
55044;BME280;54902;50.420;18.854;2023-12-04T00:40:17;101958.75;;;-4.34;85.30
55044;BME280;54902;50.420;18.854;2023-12-04T00:40:48;101967.60;;;-4.32;85.31
55044;BME280;54902;50.420;18.854;2023-12-04T00:41:19;101962.29;;;-4.34;85.32
55044;BME280;54902;50.420;18.854;2023-12-04T00:41:50;101963.16;;;-4.33;85.34
55044;BME280;54902;50.420;18.854;2023-12-04T00:42:21;101962.29;;;-4.34;85.33
55044;BME280;54902;50.420;18.854;2023-12-04T00:42:52;101964.94;;;-4.32;85.33
55044;BME280;54902;50.420;18.854;2023-12-04T00:43:23;101962.27;;;-4.32;85.32
55044;BME280;54902;50.420;18.854;2023-12-04T00:43:54;101967.60;;;-4.32;85.32
55044;BME280;54902;50.420;18.854;2023-12-04T00:44:25;101964.94;;;-4.32;85.33
55044;BME280;54902;50.420;18.854;2023-12-04T00:44:56;101966.73;;;-4.33;85.33
55044;BME280;54902;50.420;18.854;2023-12-04T00:45:27;101968.52;;;-4.32;85.34
55044;BME280;54902;50.420;18.854;2023-12-04T00:45:59;101967.60;;;-4.32;85.32
55044;BME280;54902;50.420;18.854;2023-12-04T00:46:30;101967.60;;;-4.32;85.31
55044;BME280;54902;50.420;18.854;2023-12-04T00:47:01;101972.94;;;-4.32;85.33
55044;BME280;54902;50.420;18.854;2023-12-04T00:47:32;101967.60;;;-4.32;85.32
55044;BME280;54902;50.420;18.854;2023-12-04T00:48:03;101959.61;;;-4.32;85.33
55044;BME280;54902;50.420;18.854;2023-12-04T00:48:34;101966.73;;;-4.33;85.32
55044;BME280;54902;50.420;18.854;2023-12-04T00:49:05;101971.16;;;-4.33;85.32
55044;BME280;54902;50.420;18.854;2023-12-04T00:49:37;101971.16;;;-4.33;85.30
55044;BME280;54902;50.420;18.854;2023-12-04T00:50:08;101969.41;;;-4.34;85.30
55044;BME280;54902;50.420;18.854;2023-12-04T00:50:39;101974.73;;;-4.33;85.29
55044;BME280;54902;50.420;18.854;2023-12-04T00:51:10;101966.75;;;-4.34;85.30
55044;BME280;54902;50.420;18.854;2023-12-04T00:51:41;101966.75;;;-4.34;85.28
55044;BME280;54902;50.420;18.854;2023-12-04T00:52:12;101969.41;;;-4.34;85.28
55044;BME280;54902;50.420;18.854;2023-12-04T00:52:43;101972.95;;;-4.34;85.27
55044;BME280;54902;50.420;18.854;2023-12-04T00:53:14;101969.41;;;-4.34;85.29
55044;BME280;54902;50.420;18.854;2023-12-04T00:53:45;101975.63;;;-4.35;85.26
55044;BME280;54902;50.420;18.854;2023-12-04T00:54:16;101974.77;;;-4.36;85.26
55044;BME280;54902;50.420;18.854;2023-12-04T00:54:47;101973.84;;;-4.35;85.25
55044;BME280;54902;50.420;18.854;2023-12-04T00:55:18;101978.30;;;-4.35;85.25
55044;BME280;54902;50.420;18.854;2023-12-04T00:55:50;101979.18;;;-4.36;85.24
55044;BME280;54902;50.420;18.854;2023-12-04T00:56:21;101975.65;;;-4.37;85.25
55044;BME280;54902;50.420;18.854;2023-12-04T00:56:52;101975.65;;;-4.37;85.25
55044;BME280;54902;50.420;18.854;2023-12-04T00:57:23;101984.52;;;-4.38;85.23
55044;BME280;54902;50.420;18.854;2023-12-04T00:57:54;101980.06;;;-4.37;85.23
55044;BME280;54902;50.420;18.854;2023-12-04T00:58:28;101972.98;;;-4.38;85.22
55044;BME280;54902;50.420;18.854;2023-12-04T00:58:59;101975.66;;;-4.38;85.22
55044;BME280;54902;50.420;18.854;2023-12-04T00:59:30;101976.53;;;-4.39;85.22
55044;BME280;54902;50.420;18.854;2023-12-04T01:00:01;101975.66;;;-4.40;85.23
55044;BME280;54902;50.420;18.854;2023-12-04T01:00:33;101968.54;;;-4.39;85.22
55044;BME280;54902;50.420;18.854;2023-12-04T01:01:04;101973.89;;;-4.41;85.20
55044;BME280;54902;50.420;18.854;2023-12-04T01:01:36;101975.66;;;-4.40;85.21
55044;BME280;54902;50.420;18.854;2023-12-04T01:02:07;101974.77;;;-4.40;85.22
55044;BME280;54902;50.420;18.854;2023-12-04T01:02:39;101980.97;;;-4.41;85.20
55044;BME280;54902;50.420;18.854;2023-12-04T01:03:10;101980.97;;;-4.41;85.19
55044;BME280;54902;50.420;18.854;2023-12-04T01:03:42;101978.30;;;-4.41;85.21
55044;BME280;54902;50.420;18.854;2023-12-04T01:04:13;101979.23;;;-4.42;85.20
55044;BME280;54902;50.420;18.854;2023-12-04T01:04:43;101987.23;;;-4.42;85.20
55044;BME280;54902;50.420;18.854;2023-12-04T01:05:14;101980.12;;;-4.43;85.19
55044;BME280;54902;50.420;18.854;2023-12-04T01:05:45;101974.79;;;-4.43;85.19
55044;BME280;54902;50.420;18.854;2023-12-04T01:06:22;101976.58;;;-4.44;85.18
55044;BME280;54902;50.420;18.854;2023-12-04T01:06:54;101981.91;;;-4.44;85.17
55044;BME280;54902;50.420;18.854;2023-12-04T01:07:25;101977.47;;;-4.46;85.16
55044;BME280;54902;50.420;18.854;2023-12-04T01:07:56;101988.99;;;-4.44;85.16
55044;BME280;54902;50.420;18.854;2023-12-04T01:08:27;101984.55;;;-4.45;85.16
55044;BME280;54902;50.420;18.854;2023-12-04T01:08:58;101981.03;;;-4.47;85.16
55044;BME280;54902;50.420;18.854;2023-12-04T01:09:29;101983.69;;;-4.47;85.16
55044;BME280;54902;50.420;18.854;2023-12-04T01:10:00;101978.36;;;-4.47;85.16
55044;BME280;54902;50.420;18.854;2023-12-04T01:10:31;101980.12;;;-4.48;85.15
55044;BME280;54902;50.420;18.854;2023-12-04T01:11:02;101981.04;;;-4.49;85.15
55044;BME280;54902;50.420;18.854;2023-12-04T01:11:33;101973.92;;;-4.50;85.13
55044;BME280;54902;50.420;18.854;2023-12-04T01:12:07;101976.60;;;-4.51;85.14
55044;BME280;54902;50.420;18.854;2023-12-04T01:12:38;101983.70;;;-4.49;85.13
55044;BME280;54902;50.420;18.854;2023-12-04T01:13:09;101981.94;;;-4.51;85.13
55044;BME280;54902;50.420;18.854;2023-12-04T01:13:40;101970.36;;;-4.52;85.11
55044;BME280;54902;50.420;18.854;2023-12-04T01:14:11;101976.60;;;-4.51;85.12
55044;BME280;54902;50.420;18.854;2023-12-04T01:14:43;101981.94;;;-4.53;85.13
55044;BME280;54902;50.420;18.854;2023-12-04T01:15:14;101979.28;;;-4.53;85.13
55044;BME280;54902;50.420;18.854;2023-12-04T01:15:45;101981.04;;;-4.53;85.12
55044;BME280;54902;50.420;18.854;2023-12-04T01:16:18;101981.04;;;-4.53;85.11
55044;BME280;54902;50.420;18.854;2023-12-04T01:16:49;101981.96;;;-4.54;85.12
55044;BME280;54902;50.420;18.854;2023-12-04T01:17:20;101975.73;;;-4.56;85.10
55044;BME280;54902;50.420;18.854;2023-12-04T01:17:52;101981.96;;;-4.54;85.10
55044;BME280;54902;50.420;18.854;2023-12-04T01:18:23;101986.38;;;-4.55;85.10
55044;BME280;54902;50.420;18.854;2023-12-04T01:18:54;101978.39;;;-4.56;85.10
55044;BME280;54902;50.420;18.854;2023-12-04T01:19:24;101978.39;;;-4.56;85.09
55044;BME280;54902;50.420;18.854;2023-12-04T01:19:55;101986.40;;;-4.56;85.09
55044;BME280;54902;50.420;18.854;2023-12-04T01:20:28;101978.41;;;-4.58;85.10
55044;BME280;54902;50.420;18.854;2023-12-04T01:20:59;101983.73;;;-4.58;85.09
55044;BME280;54902;50.420;18.854;2023-12-04T01:21:31;101987.28;;;-4.57;85.10
55044;BME280;54902;50.420;18.854;2023-12-04T01:22:02;101981.07;;;-4.58;85.08
55044;BME280;54902;50.420;18.854;2023-12-04T01:22:33;101982.83;;;-4.58;85.09
55044;BME280;54902;50.420;18.854;2023-12-04T01:23:04;101978.43;;;-4.61;85.09
55044;BME280;54902;50.420;18.854;2023-12-04T01:23:35;101976.63;;;-4.60;85.09
55044;BME280;54902;50.420;18.854;2023-12-04T01:24:06;101978.43;;;-4.61;85.10
55044;BME280;54902;50.420;18.854;2023-12-04T01:24:37;101974.86;;;-4.61;85.10
55044;BME280;54902;50.420;18.854;2023-12-04T01:25:09;101980.18;;;-4.61;85.09
55044;BME280;54902;50.420;18.854;2023-12-04T01:25:41;101984.63;;;-4.62;85.09
55044;BME280;54902;50.420;18.854;2023-12-04T01:26:12;101976.66;;;-4.63;85.10
55044;BME280;54902;50.420;18.854;2023-12-04T01:26:43;101983.73;;;-4.62;85.09
55044;BME280;54902;50.420;18.854;2023-12-04T01:27:14;101983.73;;;-4.62;85.10
55044;BME280;54902;50.420;18.854;2023-12-04T01:27:45;101979.33;;;-4.63;85.09
55044;BME280;54902;50.420;18.854;2023-12-04T01:28:16;101984.65;;;-4.63;85.10
55044;BME280;54902;50.420;18.854;2023-12-04T01:28:48;101978.41;;;-4.62;85.10
55044;BME280;54902;50.420;18.854;2023-12-04T01:29:19;101981.99;;;-4.63;85.11
55044;BME280;54902;50.420;18.854;2023-12-04T01:29:50;101985.53;;;-4.64;85.10
55044;BME280;54902;50.420;18.854;2023-12-04T01:30:21;101981.09;;;-4.65;84.98
55044;BME280;54902;50.420;18.854;2023-12-04T01:30:52;101981.99;;;-4.63;85.11
55044;BME280;54902;50.420;18.854;2023-12-04T01:31:23;101981.09;;;-4.63;85.11
55044;BME280;54902;50.420;18.854;2023-12-04T01:31:54;101980.23;;;-4.67;84.93
55044;BME280;54902;50.420;18.854;2023-12-04T01:32:25;101984.65;;;-4.63;85.10
55044;BME280;54902;50.420;18.854;2023-12-04T01:32:56;101978.41;;;-4.63;85.11
55044;BME280;54902;50.420;18.854;2023-12-04T01:33:27;101984.67;;;-4.64;85.12
55044;BME280;54902;50.420;18.854;2023-12-04T01:33:58;101984.65;;;-4.63;85.12
55044;BME280;54902;50.420;18.854;2023-12-04T01:34:29;101990.86;;;-4.64;85.12
55044;BME280;54902;50.420;18.854;2023-12-04T01:35:01;101980.20;;;-4.64;85.12
55044;BME280;54902;50.420;18.854;2023-12-04T01:35:32;101989.07;;;-4.63;85.15
55044;BME280;54902;50.420;18.854;2023-12-04T01:36:04;101982.88;;;-4.64;85.13
55044;BME280;54902;50.420;18.854;2023-12-04T01:36:35;101976.66;;;-4.63;85.14
55044;BME280;54902;50.420;18.854;2023-12-04T01:37:06;101979.33;;;-4.64;85.13
55044;BME280;54902;50.420;18.854;2023-12-04T01:37:37;101981.09;;;-4.65;85.14
55044;BME280;54902;50.420;18.854;2023-12-04T01:38:09;101981.09;;;-4.63;85.15
55044;BME280;54902;50.420;18.854;2023-12-04T01:38:40;101985.53;;;-4.64;85.15
55044;BME280;54902;50.420;18.854;2023-12-04T01:39:11;101985.53;;;-4.64;85.13
55044;BME280;54902;50.420;18.854;2023-12-04T01:39:42;101983.75;;;-4.63;85.13
55044;BME280;54902;50.420;18.854;2023-12-04T01:40:13;101983.75;;;-4.65;85.14
55044;BME280;54902;50.420;18.854;2023-12-04T01:40:45;101981.99;;;-4.64;85.19
55044;BME280;54902;50.420;18.854;2023-12-04T01:41:16;101993.53;;;-4.64;85.15
55044;BME280;54902;50.420;18.854;2023-12-04T01:41:47;101981.09;;;-4.65;85.12
55044;BME280;54902;50.420;18.854;2023-12-04T01:42:18;101986.42;;;-4.65;85.12
55044;BME280;54902;50.420;18.854;2023-12-04T01:42:49;101983.75;;;-4.65;85.12
55044;BME280;54902;50.420;18.854;2023-12-04T01:43:20;101976.65;;;-4.66;85.11
55044;BME280;54902;50.420;18.854;2023-12-04T01:43:51;101981.97;;;-4.66;85.11
55044;BME280;54902;50.420;18.854;2023-12-04T01:44:22;101982.88;;;-4.65;85.12
55044;BME280;54902;50.420;18.854;2023-12-04T01:44:53;101989.97;;;-4.66;85.09
55044;BME280;54902;50.420;18.854;2023-12-04T01:45:25;101985.55;;;-4.67;85.10
55044;BME280;54902;50.420;18.854;2023-12-04T01:45:56;101980.23;;;-4.67;85.08
55044;BME280;54902;50.420;18.854;2023-12-04T01:46:28;101981.99;;;-4.69;85.08
55044;BME280;54902;50.420;18.854;2023-12-04T01:47:00;101985.57;;;-4.68;85.07
55044;BME280;54902;50.420;18.854;2023-12-04T01:47:31;101962.52;;;-4.80;85.04
55044;BME280;54902;50.420;18.854;2023-12-04T01:48:02;101977.55;;;-4.70;85.06
55044;BME280;54902;50.420;18.854;2023-12-04T01:48:34;101974.01;;;-4.70;85.05
55044;BME280;54902;50.420;18.854;2023-12-04T01:49:05;101953.62;;;-4.82;85.02
55044;BME280;54902;50.420;18.854;2023-12-04T01:49:36;101976.69;;;-4.72;85.03
55044;BME280;54902;50.420;18.854;2023-12-04T01:50:08;101983.77;;;-4.72;85.03
55044;BME280;54902;50.420;18.854;2023-12-04T01:50:40;101978.45;;;-4.74;85.01
55044;BME280;54902;50.420;18.854;2023-12-04T01:51:12;101979.38;;;-4.75;85.00
55044;BME280;54902;50.420;18.854;2023-12-04T01:51:43;101984.70;;;-4.75;85.02
55044;BME280;54902;50.420;18.854;2023-12-04T01:52:15;101980.26;;;-4.76;85.09
55044;BME280;54902;50.420;18.854;2023-12-04T01:52:46;101980.26;;;-4.76;85.00
55044;BME280;54902;50.420;18.854;2023-12-04T01:53:18;101987.34;;;-4.76;85.00
55044;BME280;54902;50.420;18.854;2023-12-04T01:53:50;101987.34;;;-4.78;85.00
55044;BME280;54902;50.420;18.854;2023-12-04T01:54:22;101993.59;;;-4.79;84.99
55044;BME280;54902;50.420;18.854;2023-12-04T01:54:53;101983.83;;;-4.80;84.97
55044;BME280;54902;50.420;18.854;2023-12-04T01:55:24;101989.16;;;-4.80;84.97
55044;BME280;54902;50.420;18.854;2023-12-04T01:55:55;101987.37;;;-4.81;84.96
55044;BME280;54902;50.420;18.854;2023-12-04T01:56:26;101990.91;;;-4.80;84.96
55044;BME280;54902;50.420;18.854;2023-12-04T01:56:58;101999.82;;;-4.81;84.96
55044;BME280;54902;50.420;18.854;2023-12-04T01:57:29;101990.92;;;-4.82;84.94
55044;BME280;54902;50.420;18.854;2023-12-04T01:58:02;101986.48;;;-4.83;84.95
55044;BME280;54902;50.420;18.854;2023-12-04T01:58:34;101990.05;;;-4.84;84.94
55044;BME280;54902;50.420;18.854;2023-12-04T01:59:05;101989.14;;;-4.84;84.94
55044;BME280;54902;50.420;18.854;2023-12-04T01:59:36;101985.60;;;-4.85;84.92
55044;BME280;54902;50.420;18.854;2023-12-04T02:00:08;101986.48;;;-4.86;84.94
55044;BME280;54902;50.420;18.854;2023-12-04T02:00:42;101992.70;;;-4.87;84.90
55044;BME280;54902;50.420;18.854;2023-12-04T02:01:14;101987.37;;;-4.87;84.91
55044;BME280;54902;50.420;18.854;2023-12-04T02:01:45;101992.70;;;-4.88;84.90
55044;BME280;54902;50.420;18.854;2023-12-04T02:02:17;101982.97;;;-4.89;84.89
55044;BME280;54902;50.420;18.854;2023-12-04T02:02:48;101990.94;;;-4.91;84.89
55044;BME280;54902;50.420;18.854;2023-12-04T02:03:19;101990.05;;;-4.90;84.88
55044;BME280;54902;50.420;18.854;2023-12-04T02:03:51;101993.59;;;-4.91;84.89
55044;BME280;54902;50.420;18.854;2023-12-04T02:04:22;101994.52;;;-4.92;84.88
55044;BME280;54902;50.420;18.854;2023-12-04T02:04:55;101989.19;;;-4.92;84.88
55044;BME280;54902;50.420;18.854;2023-12-04T02:05:27;101993.60;;;-4.92;84.89
55044;BME280;54902;50.420;18.854;2023-12-04T02:05:59;101993.63;;;-4.94;84.89
55044;BME280;54902;50.420;18.854;2023-12-04T02:06:34;101993.63;;;-4.95;84.86
55044;BME280;54902;50.420;18.854;2023-12-04T02:07:05;101997.16;;;-4.95;84.87
55044;BME280;54902;50.420;18.854;2023-12-04T02:07:36;101983.86;;;-4.98;84.87
55044;BME280;54902;50.420;18.854;2023-12-04T02:08:08;101985.64;;;-4.97;84.85
55044;BME280;54902;50.420;18.854;2023-12-04T02:08:42;101993.65;;;-4.98;84.87
55044;BME280;54902;50.420;18.854;2023-12-04T02:09:13;101989.19;;;-4.98;84.85
55044;BME280;54902;50.420;18.854;2023-12-04T02:09:47;101995.40;;;-4.99;84.85
55044;BME280;54902;50.420;18.854;2023-12-04T02:10:18;101998.06;;;-4.99;84.86
55044;BME280;54902;50.420;18.854;2023-12-04T02:10:49;101989.21;;;-5.01;84.84
55044;BME280;54902;50.420;18.854;2023-12-04T02:11:20;101992.74;;;-5.00;84.83
55044;BME280;54902;50.420;18.854;2023-12-04T02:11:51;101983.87;;;-5.05;85.00
55044;BME280;54902;50.420;18.854;2023-12-04T02:12:23;101987.43;;;-5.02;84.84
55044;BME280;54902;50.420;18.854;2023-12-04T02:12:55;101990.09;;;-5.03;84.81
55044;BME280;54902;50.420;18.854;2023-12-04T02:13:27;101995.41;;;-5.03;84.82
55044;BME280;54902;50.420;18.854;2023-12-04T02:13:58;101988.31;;;-5.04;84.81
55044;BME280;54902;50.420;18.854;2023-12-04T02:14:29;101982.99;;;-5.06;84.82
55044;BME280;54902;50.420;18.854;2023-12-04T02:15:00;101980.34;;;-5.06;84.81
55044;BME280;54902;50.420;18.854;2023-12-04T02:15:32;101988.33;;;-5.07;84.80
55044;BME280;54902;50.420;18.854;2023-12-04T02:16:09;101982.13;;;-5.08;84.80
55044;BME280;54902;50.420;18.854;2023-12-04T02:16:41;101984.77;;;-5.09;84.80
55044;BME280;54902;50.420;18.854;2023-12-04T02:17:14;101985.68;;;-5.10;84.77
55044;BME280;54902;50.420;18.854;2023-12-04T02:17:46;101975.00;;;-5.12;84.77
55044;BME280;54902;50.420;18.854;2023-12-04T02:18:17;101983.91;;;-5.13;84.77
55044;BME280;54902;50.420;18.854;2023-12-04T02:18:49;101976.80;;;-5.12;84.78
55044;BME280;54902;50.420;18.854;2023-12-04T02:19:21;101980.34;;;-5.15;84.75
55044;BME280;54902;50.420;18.854;2023-12-04T02:19:52;101978.57;;;-5.16;84.74
55044;BME280;54902;50.420;18.854;2023-12-04T02:20:31;101983.89;;;-5.16;84.74
55044;BME280;54902;50.420;18.854;2023-12-04T02:21:04;101973.26;;;-5.19;84.74
55044;BME280;54902;50.420;18.854;2023-12-04T02:21:35;101973.26;;;-5.19;84.74
55044;BME280;54902;50.420;18.854;2023-12-04T02:22:06;101983.91;;;-5.19;84.72
55044;BME280;54902;50.420;18.854;2023-12-04T02:22:37;101978.59;;;-5.20;84.71
55044;BME280;54902;50.420;18.854;2023-12-04T02:23:08;101982.13;;;-5.22;84.71
55044;BME280;54902;50.420;18.854;2023-12-04T02:23:39;101979.48;;;-5.24;84.70
55044;BME280;54902;50.420;18.854;2023-12-04T02:24:10;101981.27;;;-5.24;84.70
55044;BME280;54902;50.420;18.854;2023-12-04T02:24:42;101975.05;;;-5.26;84.69
55044;BME280;54902;50.420;18.854;2023-12-04T02:25:13;101972.39;;;-5.26;84.69
55044;BME280;54902;50.420;18.854;2023-12-04T02:25:44;101983.04;;;-5.28;84.68
55044;BME280;54902;50.420;18.854;2023-12-04T02:26:17;101975.94;;;-5.29;84.69
55044;BME280;54902;50.420;18.854;2023-12-04T02:26:55;101981.27;;;-5.30;84.67
55044;BME280;54902;50.420;18.854;2023-12-04T02:27:36;101971.50;;;-5.31;84.66
55044;BME280;54902;50.420;18.854;2023-12-04T02:28:12;101980.40;;;-5.32;84.68
55044;BME280;54902;50.420;18.854;2023-12-04T02:28:48;101968.85;;;-5.36;84.66
55044;BME280;54902;50.420;18.854;2023-12-04T02:29:32;101970.65;;;-5.35;84.65
55044;BME280;54902;50.420;18.854;2023-12-04T02:30:10;101972.39;;;-5.37;84.66
55044;BME280;54902;50.420;18.854;2023-12-04T02:30:43;101976.84;;;-5.37;84.66
55044;BME280;54902;50.420;18.854;2023-12-04T02:31:16;101967.97;;;-5.39;84.64
55044;BME280;54902;50.420;18.854;2023-12-04T02:31:51;101974.20;;;-5.39;84.67
55044;BME280;54902;50.420;18.854;2023-12-04T02:32:24;101977.73;;;-5.40;84.64
55044;BME280;54902;50.420;18.854;2023-12-04T02:32:59;101975.09;;;-5.41;84.65
55044;BME280;54902;50.420;18.854;2023-12-04T02:33:33;101978.61;;;-5.42;84.66
55044;BME280;54902;50.420;18.854;2023-12-04T02:34:06;101986.60;;;-5.42;84.66
55044;BME280;54902;50.420;18.854;2023-12-04T02:34:40;101977.71;;;-5.44;84.66
55044;BME280;54902;50.420;18.854;2023-12-04T02:35:14;101983.04;;;-5.44;84.66
55044;BME280;54902;50.420;18.854;2023-12-04T02:35:47;101974.18;;;-5.45;84.66
55044;BME280;54902;50.420;18.854;2023-12-04T02:36:19;101983.05;;;-5.46;84.66
55044;BME280;54902;50.420;18.854;2023-12-04T02:36:52;101982.17;;;-5.46;84.66
55044;BME280;54902;50.420;18.854;2023-12-04T02:37:25;101988.38;;;-5.47;84.68
55044;BME280;54902;50.420;18.854;2023-12-04T02:37:57;101993.70;;;-5.47;84.67
55044;BME280;54902;50.420;18.854;2023-12-04T02:38:29;101991.04;;;-5.47;84.67
55044;BME280;54902;50.420;18.854;2023-12-04T02:39:01;101995.48;;;-5.48;84.67
55044;BME280;54902;50.420;18.854;2023-12-04T02:39:32;101998.16;;;-5.49;84.66
55044;BME280;54902;50.420;18.854;2023-12-04T02:40:04;101988.38;;;-5.50;84.64
55044;BME280;54902;50.420;18.854;2023-12-04T02:40:37;101987.48;;;-5.52;84.64
55044;BME280;54902;50.420;18.854;2023-12-04T02:41:08;101991.05;;;-5.52;84.65
55044;BME280;54902;50.420;18.854;2023-12-04T02:41:39;101992.80;;;-5.52;84.64
55044;BME280;54902;50.420;18.854;2023-12-04T02:42:12;101988.39;;;-5.53;84.64
55044;BME280;54902;50.420;18.854;2023-12-04T02:42:44;101984.83;;;-5.55;84.64
55044;BME280;54902;50.420;18.854;2023-12-04T02:43:16;101992.81;;;-5.55;84.62